sensor_id;sensor_type;location;lat;lon;timestamp;P1;durP1;ratioP1;P2;durP2;ratioP2
35969;SDS011;22448;51.298;6.430;2022-11-03T08:00:16;21.53;;;4.53;;
35969;SDS011;22448;51.298;6.430;2022-11-03T08:02:47;21.13;;;4.65;;
35969;SDS011;22448;51.298;6.430;2022-11-03T08:05:22;31.10;;;5.05;;
35969;SDS011;22448;51.298;6.430;2022-11-03T08:07:49;11.95;;;4.00;;
35969;SDS011;22448;51.298;6.430;2022-11-03T08:10:16;15.27;;;4.13;;
35969;SDS011;22448;51.298;6.430;2022-11-03T08:12:44;21.95;;;5.07;;
35969;SDS011;22448;51.298;6.430;2022-11-03T08:15:11;19.10;;;5.05;;
35969;SDS011;22448;51.298;6.430;2022-11-03T08:17:39;18.63;;;3.78;;
35969;SDS011;22448;51.298;6.430;2022-11-03T08:20:06;19.52;;;3.97;;
35969;SDS011;22448;51.298;6.430;2022-11-03T08:22:34;16.35;;;3.75;;
35969;SDS011;22448;51.298;6.430;2022-11-03T08:25:04;23.15;;;4.32;;
35969;SDS011;22448;51.298;6.430;2022-11-03T08:27:31;19.27;;;4.15;;
35969;SDS011;22448;51.298;6.430;2022-11-03T08:29:58;16.00;;;3.85;;
35969;SDS011;22448;51.298;6.430;2022-11-03T08:32:25;20.77;;;3.65;;
35969;SDS011;22448;51.298;6.430;2022-11-03T08:34:52;17.48;;;3.50;;
35969;SDS011;22448;51.298;6.430;2022-11-03T08:37:19;18.67;;;3.45;;
35969;SDS011;22448;51.298;6.430;2022-11-03T08:39:46;13.90;;;3.85;;
35969;SDS011;22448;51.298;6.430;2022-11-03T08:42:14;14.75;;;3.10;;
35969;SDS011;22448;51.298;6.430;2022-11-03T08:44:40;19.75;;;3.97;;
35969;SDS011;22448;51.298;6.430;2022-11-03T08:47:08;19.65;;;3.95;;
35969;SDS011;22448;51.298;6.430;2022-11-03T08:49:35;20.35;;;4.57;;
35969;SDS011;22448;51.298;6.430;2022-11-03T08:52:02;20.60;;;3.88;;
35969;SDS011;22448;51.298;6.430;2022-11-03T08:54:29;20.58;;;4.05;;
35969;SDS011;22448;51.298;6.430;2022-11-03T08:56:56;21.15;;;4.50;;
35969;SDS011;22448;51.298;6.430;2022-11-03T08:59:23;23.05;;;4.38;;
35969;SDS011;22448;51.298;6.430;2022-11-03T09:01:50;18.65;;;3.55;;
35969;SDS011;22448;51.298;6.430;2022-11-03T09:04:17;14.23;;;3.22;;
35969;SDS011;22448;51.298;6.430;2022-11-03T09:06:45;19.80;;;4.38;;
35969;SDS011;22448;51.298;6.430;2022-11-03T09:09:13;15.98;;;3.38;;
35969;SDS011;22448;51.298;6.430;2022-11-03T09:12:04;14.52;;;3.25;;
35969;SDS011;22448;51.298;6.430;2022-11-03T09:14:31;23.05;;;3.70;;
35969;SDS011;22448;51.298;6.430;2022-11-03T09:17:13;24.08;;;4.00;;
35969;SDS011;22448;51.298;6.430;2022-11-03T09:19:40;9.90;;;2.97;;
35969;SDS011;22448;51.298;6.430;2022-11-03T09:22:07;17.08;;;4.32;;
35969;SDS011;22448;51.298;6.430;2022-11-03T09:24:34;23.77;;;4.50;;
35969;SDS011;22448;51.298;6.430;2022-11-03T09:27:04;14.90;;;3.33;;
35969;SDS011;22448;51.298;6.430;2022-11-03T09:29:32;23.58;;;4.38;;
35969;SDS011;22448;51.298;6.430;2022-11-03T09:32:19;19.42;;;3.80;;
35969;SDS011;22448;51.298;6.430;2022-11-03T09:34:52;18.60;;;3.55;;
35969;SDS011;22448;51.298;6.430;2022-11-03T09:37:19;14.00;;;3.65;;
35969;SDS011;22448;51.298;6.430;2022-11-03T09:39:46;16.05;;;3.92;;
35969;SDS011;22448;51.298;6.430;2022-11-03T09:42:12;18.85;;;3.72;;
35969;SDS011;22448;51.298;6.430;2022-11-03T09:44:41;14.13;;;3.78;;
35969;SDS011;22448;51.298;6.430;2022-11-03T09:47:10;20.50;;;4.07;;
35969;SDS011;22448;51.298;6.430;2022-11-03T09:49:45;19.58;;;4.25;;
35969;SDS011;22448;51.298;6.430;2022-11-03T09:52:13;14.48;;;3.45;;
35969;SDS011;22448;51.298;6.430;2022-11-03T09:54:41;19.33;;;3.75;;
35969;SDS011;22448;51.298;6.430;2022-11-03T09:57:10;19.70;;;3.80;;
35969;SDS011;22448;51.298;6.430;2022-11-03T09:59:41;13.68;;;3.75;;
35969;SDS011;22448;51.298;6.430;2022-11-03T10:02:19;14.27;;;3.63;;
35969;SDS011;22448;51.298;6.430;2022-11-03T10:04:50;18.80;;;4.30;;
35969;SDS011;22448;51.298;6.430;2022-11-03T10:07:19;22.02;;;3.90;;
35969;SDS011;22448;51.298;6.430;2022-11-03T10:09:47;12.40;;;3.78;;
35969;SDS011;22448;51.298;6.430;2022-11-03T10:12:17;16.27;;;3.33;;
35969;SDS011;22448;51.298;6.430;2022-11-03T10:14:45;13.70;;;3.35;;
35969;SDS011;22448;51.298;6.430;2022-11-03T10:17:14;16.95;;;3.88;;
35969;SDS011;22448;51.298;6.430;2022-11-03T10:19:47;13.25;;;3.35;;
35969;SDS011;22448;51.298;6.430;2022-11-03T10:24:44;10.50;;;3.00;;
35969;SDS011;22448;51.298;6.430;2022-11-03T10:27:21;17.58;;;3.40;;
35969;SDS011;22448;51.298;6.430;2022-11-03T10:30:07;11.15;;;3.03;;
35969;SDS011;22448;51.298;6.430;2022-11-03T10:32:36;18.80;;;3.55;;
35969;SDS011;22448;51.298;6.430;2022-11-03T10:40:51;16.00;;;3.03;;
35969;SDS011;22448;51.298;6.430;2022-11-03T10:43:18;15.73;;;3.35;;
35969;SDS011;22448;51.298;6.430;2022-11-03T10:45:46;13.07;;;2.90;;
35969;SDS011;22448;51.298;6.430;2022-11-03T10:48:15;11.07;;;3.03;;
35969;SDS011;22448;51.298;6.430;2022-11-03T10:50:41;16.85;;;3.42;;
35969;SDS011;22448;51.298;6.430;2022-11-03T10:53:12;10.50;;;2.53;;
35969;SDS011;22448;51.298;6.430;2022-11-03T10:55:42;13.60;;;2.65;;
35969;SDS011;22448;51.298;6.430;2022-11-03T10:58:10;11.52;;;2.65;;
35969;SDS011;22448;51.298;6.430;2022-11-03T11:00:38;16.25;;;2.88;;
35969;SDS011;22448;51.298;6.430;2022-11-03T11:03:07;10.95;;;3.17;;
35969;SDS011;22448;51.298;6.430;2022-11-03T11:05:45;15.15;;;3.20;;
35969;SDS011;22448;51.298;6.430;2022-11-03T11:08:13;11.40;;;3.20;;
35969;SDS011;22448;51.298;6.430;2022-11-03T11:10:43;17.08;;;3.30;;
35969;SDS011;22448;51.298;6.430;2022-11-03T11:20:59;15.48;;;3.17;;
35969;SDS011;22448;51.298;6.430;2022-11-03T11:23:47;9.02;;;2.42;;
35969;SDS011;22448;51.298;6.430;2022-11-03T11:26:15;12.98;;;3.03;;
35969;SDS011;22448;51.298;6.430;2022-11-03T11:31:38;11.50;;;2.17;;
35969;SDS011;22448;51.298;6.430;2022-11-03T11:36:36;12.57;;;2.55;;
35969;SDS011;22448;51.298;6.430;2022-11-03T11:39:53;16.17;;;3.40;;
35969;SDS011;22448;51.298;6.430;2022-11-03T11:49:48;11.57;;;2.65;;
35969;SDS011;22448;51.298;6.430;2022-11-03T11:52:39;18.15;;;3.08;;
35969;SDS011;22448;51.298;6.430;2022-11-03T11:55:31;12.77;;;2.80;;
35969;SDS011;22448;51.298;6.430;2022-11-03T11:58:22;17.70;;;3.05;;
35969;SDS011;22448;51.298;6.430;2022-11-03T12:01:02;17.58;;;3.10;;
35969;SDS011;22448;51.298;6.430;2022-11-03T12:03:33;16.80;;;2.92;;
35969;SDS011;22448;51.298;6.430;2022-11-03T12:06:08;13.48;;;3.55;;
35969;SDS011;22448;51.298;6.430;2022-11-03T12:08:38;16.83;;;3.20;;
35969;SDS011;22448;51.298;6.430;2022-11-03T12:11:07;16.42;;;3.30;;
35969;SDS011;22448;51.298;6.430;2022-11-03T12:13:47;17.70;;;3.97;;
35969;SDS011;22448;51.298;6.430;2022-11-03T12:21:58;11.80;;;3.08;;
35969;SDS011;22448;51.298;6.430;2022-11-03T12:26:59;20.48;;;2.78;;
35969;SDS011;22448;51.298;6.430;2022-11-03T12:29:26;17.92;;;3.00;;
35969;SDS011;22448;51.298;6.430;2022-11-03T12:31:54;17.52;;;3.63;;
35969;SDS011;22448;51.298;6.430;2022-11-03T12:34:21;9.40;;;2.50;;
35969;SDS011;22448;51.298;6.430;2022-11-03T12:36:48;18.42;;;3.58;;
35969;SDS011;22448;51.298;6.430;2022-11-03T12:39:21;13.27;;;2.85;;
35969;SDS011;22448;51.298;6.430;2022-11-03T12:41:48;18.63;;;3.63;;
35969;SDS011;22448;51.298;6.430;2022-11-03T12:44:14;13.98;;;3.28;;
35969;SDS011;22448;51.298;6.430;2022-11-03T12:46:41;10.27;;;2.50;;
35969;SDS011;22448;51.298;6.430;2022-11-03T12:49:08;13.95;;;2.83;;
35969;SDS011;22448;51.298;6.430;2022-11-03T12:51:35;12.65;;;3.20;;
35969;SDS011;22448;51.298;6.430;2022-11-03T12:54:02;13.98;;;3.05;;
35969;SDS011;22448;51.298;6.430;2022-11-03T12:56:29;14.80;;;3.40;;
35969;SDS011;22448;51.298;6.430;2022-11-03T12:58:56;18.65;;;3.00;;
35969;SDS011;22448;51.298;6.430;2022-11-03T13:01:23;15.60;;;3.13;;
35969;SDS011;22448;51.298;6.430;2022-11-03T13:03:50;18.42;;;3.67;;
35969;SDS011;22448;51.298;6.430;2022-11-03T13:06:17;10.20;;;2.97;;
35969;SDS011;22448;51.298;6.430;2022-11-03T13:08:44;16.25;;;3.08;;
35969;SDS011;22448;51.298;6.430;2022-11-03T13:11:15;18.75;;;4.18;;
35969;SDS011;22448;51.298;6.430;2022-11-03T13:14:01;15.85;;;3.63;;
35969;SDS011;22448;51.298;6.430;2022-11-03T13:16:30;9.68;;;3.28;;
35969;SDS011;22448;51.298;6.430;2022-11-03T13:18:57;10.90;;;3.00;;
35969;SDS011;22448;51.298;6.430;2022-11-03T13:21:24;13.52;;;3.45;;
35969;SDS011;22448;51.298;6.430;2022-11-03T13:23:51;15.15;;;3.63;;
35969;SDS011;22448;51.298;6.430;2022-11-03T13:26:18;15.35;;;3.03;;
35969;SDS011;22448;51.298;6.430;2022-11-03T13:28:45;13.38;;;3.17;;
35969;SDS011;22448;51.298;6.430;2022-11-03T13:31:12;17.48;;;3.10;;
35969;SDS011;22448;51.298;6.430;2022-11-03T13:33:39;15.45;;;3.00;;
35969;SDS011;22448;51.298;6.430;2022-11-03T13:36:06;18.15;;;3.50;;
35969;SDS011;22448;51.298;6.430;2022-11-03T13:38:34;11.60;;;3.10;;
35969;SDS011;22448;51.298;6.430;2022-11-03T13:41:01;14.00;;;3.10;;
35969;SDS011;22448;51.298;6.430;2022-11-03T13:43:34;12.15;;;3.03;;
35969;SDS011;22448;51.298;6.430;2022-11-03T13:46:02;16.27;;;4.00;;
35969;SDS011;22448;51.298;6.430;2022-11-03T13:48:30;11.57;;;3.40;;
35969;SDS011;22448;51.298;6.430;2022-11-03T13:51:17;13.65;;;3.17;;
35969;SDS011;22448;51.298;6.430;2022-11-03T13:53:46;10.23;;;2.90;;
35969;SDS011;22448;51.298;6.430;2022-11-03T13:56:34;11.20;;;3.10;;
35969;SDS011;22448;51.298;6.430;2022-11-03T13:59:21;18.48;;;3.63;;
35969;SDS011;22448;51.298;6.430;2022-11-03T14:01:48;13.57;;;3.28;;
35969;SDS011;22448;51.298;6.430;2022-11-03T14:04:35;10.75;;;3.00;;
35969;SDS011;22448;51.298;6.430;2022-11-03T14:07:05;12.93;;;3.70;;
35969;SDS011;22448;51.298;6.430;2022-11-03T14:09:33;13.13;;;3.03;;
35969;SDS011;22448;51.298;6.430;2022-11-03T14:12:00;8.57;;;2.80;;
35969;SDS011;22448;51.298;6.430;2022-11-03T14:14:46;10.02;;;3.17;;
35969;SDS011;22448;51.298;6.430;2022-11-03T14:17:13;13.75;;;2.95;;
35969;SDS011;22448;51.298;6.430;2022-11-03T14:19:40;16.85;;;3.28;;
35969;SDS011;22448;51.298;6.430;2022-11-03T14:22:12;10.13;;;2.88;;
35969;SDS011;22448;51.298;6.430;2022-11-03T14:24:40;10.88;;;3.10;;
35969;SDS011;22448;51.298;6.430;2022-11-03T14:27:07;10.13;;;3.35;;
35969;SDS011;22448;51.298;6.430;2022-11-03T14:29:34;8.57;;;2.92;;
35969;SDS011;22448;51.298;6.430;2022-11-03T14:32:02;12.65;;;3.50;;
35969;SDS011;22448;51.298;6.430;2022-11-03T14:34:30;16.80;;;3.15;;
35969;SDS011;22448;51.298;6.430;2022-11-03T14:36:57;26.10;;;4.50;;
35969;SDS011;22448;51.298;6.430;2022-11-03T14:39:25;12.88;;;3.47;;
35969;SDS011;22448;51.298;6.430;2022-11-03T14:41:52;14.40;;;3.63;;
35969;SDS011;22448;51.298;6.430;2022-11-03T14:44:32;25.48;;;4.00;;
35969;SDS011;22448;51.298;6.430;2022-11-03T14:47:01;14.68;;;4.20;;
35969;SDS011;22448;51.298;6.430;2022-11-03T14:49:30;18.50;;;4.10;;
35969;SDS011;22448;51.298;6.430;2022-11-03T14:51:58;16.13;;;4.10;;
35969;SDS011;22448;51.298;6.430;2022-11-03T14:54:29;13.07;;;3.67;;
35969;SDS011;22448;51.298;6.430;2022-11-03T14:56:57;13.25;;;4.10;;
35969;SDS011;22448;51.298;6.430;2022-11-03T14:59:24;12.73;;;3.90;;
35969;SDS011;22448;51.298;6.430;2022-11-03T15:01:52;14.20;;;4.43;;
35969;SDS011;22448;51.298;6.430;2022-11-03T15:04:20;19.63;;;5.93;;
35969;SDS011;22448;51.298;6.430;2022-11-03T15:06:48;15.45;;;4.82;;
35969;SDS011;22448;51.298;6.430;2022-11-03T15:09:16;16.90;;;4.40;;
35969;SDS011;22448;51.298;6.430;2022-11-03T15:11:43;18.13;;;5.03;;
35969;SDS011;22448;51.298;6.430;2022-11-03T15:14:11;19.58;;;5.13;;
35969;SDS011;22448;51.298;6.430;2022-11-03T15:16:39;22.02;;;5.43;;
35969;SDS011;22448;51.298;6.430;2022-11-03T15:19:06;14.52;;;5.30;;
35969;SDS011;22448;51.298;6.430;2022-11-03T15:21:34;19.52;;;5.38;;
35969;SDS011;22448;51.298;6.430;2022-11-03T15:24:01;17.35;;;5.45;;
35969;SDS011;22448;51.298;6.430;2022-11-03T15:26:48;24.35;;;5.63;;
35969;SDS011;22448;51.298;6.430;2022-11-03T15:29:15;16.85;;;4.88;;
35969;SDS011;22448;51.298;6.430;2022-11-03T15:31:42;13.05;;;4.82;;
35969;SDS011;22448;51.298;6.430;2022-11-03T15:34:13;17.08;;;5.97;;
35969;SDS011;22448;51.298;6.430;2022-11-03T15:36:41;18.63;;;5.57;;
35969;SDS011;22448;51.298;6.430;2022-11-03T15:39:08;14.18;;;5.28;;
35969;SDS011;22448;51.298;6.430;2022-11-03T15:41:35;17.23;;;6.22;;
35969;SDS011;22448;51.298;6.430;2022-11-03T15:44:02;18.05;;;6.18;;
35969;SDS011;22448;51.298;6.430;2022-11-03T15:46:29;22.73;;;5.80;;
35969;SDS011;22448;51.298;6.430;2022-11-03T15:48:56;25.67;;;5.80;;
35969;SDS011;22448;51.298;6.430;2022-11-03T15:51:23;17.42;;;5.72;;
35969;SDS011;22448;51.298;6.430;2022-11-03T15:53:50;26.60;;;7.65;;
35969;SDS011;22448;51.298;6.430;2022-11-03T15:58:51;19.60;;;6.88;;
35969;SDS011;22448;51.298;6.430;2022-11-03T16:01:18;19.42;;;6.15;;
35969;SDS011;22448;51.298;6.430;2022-11-03T16:03:46;17.05;;;6.32;;
35969;SDS011;22448;51.298;6.430;2022-11-03T16:06:14;21.63;;;6.72;;
35969;SDS011;22448;51.298;6.430;2022-11-03T16:08:44;20.90;;;7.22;;
35969;SDS011;22448;51.298;6.430;2022-11-03T16:11:11;23.38;;;7.43;;
35969;SDS011;22448;51.298;6.430;2022-11-03T16:13:40;21.50;;;7.13;;
35969;SDS011;22448;51.298;6.430;2022-11-03T16:16:07;21.25;;;5.88;;
35969;SDS011;22448;51.298;6.430;2022-11-03T16:18:34;20.50;;;8.15;;
35969;SDS011;22448;51.298;6.430;2022-11-03T16:21:02;18.75;;;6.85;;
35969;SDS011;22448;51.298;6.430;2022-11-03T16:23:29;19.65;;;7.20;;
35969;SDS011;22448;51.298;6.430;2022-11-03T16:25:56;38.38;;;7.60;;
35969;SDS011;22448;51.298;6.430;2022-11-03T16:28:23;20.05;;;7.60;;
35969;SDS011;22448;51.298;6.430;2022-11-03T16:30:50;15.57;;;7.60;;
35969;SDS011;22448;51.298;6.430;2022-11-03T16:33:20;17.92;;;7.03;;
35969;SDS011;22448;51.298;6.430;2022-11-03T16:35:47;16.60;;;8.13;;
35969;SDS011;22448;51.298;6.430;2022-11-03T16:38:14;19.27;;;7.72;;
35969;SDS011;22448;51.298;6.430;2022-11-03T16:40:41;22.05;;;7.38;;
35969;SDS011;22448;51.298;6.430;2022-11-03T16:43:08;23.38;;;8.27;;
35969;SDS011;22448;51.298;6.430;2022-11-03T16:45:35;19.67;;;7.43;;
35969;SDS011;22448;51.298;6.430;2022-11-03T16:48:04;17.35;;;7.35;;
35969;SDS011;22448;51.298;6.430;2022-11-03T16:50:32;21.35;;;7.85;;
35969;SDS011;22448;51.298;6.430;2022-11-03T16:52:59;25.10;;;9.05;;
35969;SDS011;22448;51.298;6.430;2022-11-03T16:55:26;20.38;;;8.57;;
35969;SDS011;22448;51.298;6.430;2022-11-03T16:57:52;18.60;;;7.57;;
35969;SDS011;22448;51.298;6.430;2022-11-03T17:00:20;13.93;;;7.43;;
35969;SDS011;22448;51.298;6.430;2022-11-03T17:02:47;18.25;;;8.57;;
35969;SDS011;22448;51.298;6.430;2022-11-03T17:05:15;19.25;;;7.90;;
35969;SDS011;22448;51.298;6.430;2022-11-03T17:07:44;23.77;;;7.53;;
35969;SDS011;22448;51.298;6.430;2022-11-03T17:10:18;23.95;;;8.15;;
35969;SDS011;22448;51.298;6.430;2022-11-03T17:12:45;18.75;;;7.00;;
35969;SDS011;22448;51.298;6.430;2022-11-03T17:15:12;17.40;;;7.10;;
35969;SDS011;22448;51.298;6.430;2022-11-03T17:17:39;18.75;;;7.72;;
35969;SDS011;22448;51.298;6.430;2022-11-03T17:20:07;20.65;;;7.85;;
35969;SDS011;22448;51.298;6.430;2022-11-03T17:22:42;21.70;;;8.55;;
35969;SDS011;22448;51.298;6.430;2022-11-03T17:25:10;19.02;;;9.10;;
35969;SDS011;22448;51.298;6.430;2022-11-03T17:30:13;20.05;;;8.38;;
35969;SDS011;22448;51.298;6.430;2022-11-03T17:32:55;21.35;;;9.32;;
35969;SDS011;22448;51.298;6.430;2022-11-03T17:35:43;20.13;;;8.82;;
35969;SDS011;22448;51.298;6.430;2022-11-03T17:38:13;22.60;;;8.07;;
35969;SDS011;22448;51.298;6.430;2022-11-03T17:40:42;19.13;;;7.65;;
35969;SDS011;22448;51.298;6.430;2022-11-03T17:45:48;21.80;;;9.50;;
35969;SDS011;22448;51.298;6.430;2022-11-03T17:48:15;19.55;;;8.57;;
35969;SDS011;22448;51.298;6.430;2022-11-03T17:50:46;24.38;;;8.90;;
35969;SDS011;22448;51.298;6.430;2022-11-03T17:53:22;16.00;;;7.63;;
35969;SDS011;22448;51.298;6.430;2022-11-03T17:55:51;16.02;;;6.40;;
35969;SDS011;22448;51.298;6.430;2022-11-03T17:58:39;18.95;;;7.95;;
35969;SDS011;22448;51.298;6.430;2022-11-03T18:01:13;18.27;;;8.48;;
35969;SDS011;22448;51.298;6.430;2022-11-03T18:03:47;19.40;;;7.00;;
35969;SDS011;22448;51.298;6.430;2022-11-03T18:06:15;13.73;;;7.40;;
35969;SDS011;22448;51.298;6.430;2022-11-03T18:08:45;16.15;;;8.10;;
35969;SDS011;22448;51.298;6.430;2022-11-03T18:11:13;13.45;;;7.65;;
35969;SDS011;22448;51.298;6.430;2022-11-03T18:14:07;16.27;;;7.85;;
35969;SDS011;22448;51.298;6.430;2022-11-03T18:16:34;18.90;;;9.18;;
35969;SDS011;22448;51.298;6.430;2022-11-03T18:19:02;22.85;;;8.13;;
35969;SDS011;22448;51.298;6.430;2022-11-03T18:21:29;12.20;;;7.40;;
35969;SDS011;22448;51.298;6.430;2022-11-03T18:23:56;14.23;;;6.82;;
35969;SDS011;22448;51.298;6.430;2022-11-03T18:26:24;12.80;;;6.38;;
35969;SDS011;22448;51.298;6.430;2022-11-03T18:28:52;15.45;;;6.13;;
35969;SDS011;22448;51.298;6.430;2022-11-03T18:34:00;14.43;;;5.47;;
35969;SDS011;22448;51.298;6.430;2022-11-03T18:36:30;11.85;;;5.18;;
35969;SDS011;22448;51.298;6.430;2022-11-03T18:38:58;8.68;;;4.63;;
35969;SDS011;22448;51.298;6.430;2022-11-03T18:41:27;12.55;;;6.15;;
35969;SDS011;22448;51.298;6.430;2022-11-03T18:44:03;13.00;;;6.10;;
35969;SDS011;22448;51.298;6.430;2022-11-03T18:46:41;9.18;;;5.40;;
35969;SDS011;22448;51.298;6.430;2022-11-03T18:49:09;7.88;;;5.20;;
35969;SDS011;22448;51.298;6.430;2022-11-03T18:51:36;11.45;;;4.68;;
35969;SDS011;22448;51.298;6.430;2022-11-03T18:54:03;9.63;;;4.72;;
35969;SDS011;22448;51.298;6.430;2022-11-03T18:56:31;11.20;;;4.60;;
35969;SDS011;22448;51.298;6.430;2022-11-03T18:59:03;11.05;;;4.60;;
35969;SDS011;22448;51.298;6.430;2022-11-03T19:01:31;11.10;;;4.65;;
35969;SDS011;22448;51.298;6.430;2022-11-03T19:03:58;10.98;;;5.18;;
35969;SDS011;22448;51.298;6.430;2022-11-03T19:06:25;10.48;;;5.15;;
35969;SDS011;22448;51.298;6.430;2022-11-03T19:08:55;10.63;;;5.35;;
35969;SDS011;22448;51.298;6.430;2022-11-03T19:11:24;12.13;;;4.97;;
35969;SDS011;22448;51.298;6.430;2022-11-03T19:13:52;10.73;;;5.03;;
35969;SDS011;22448;51.298;6.430;2022-11-03T19:16:20;11.93;;;5.40;;
35969;SDS011;22448;51.298;6.430;2022-11-03T19:18:48;11.82;;;5.60;;
35969;SDS011;22448;51.298;6.430;2022-11-03T19:21:17;9.35;;;5.47;;
35969;SDS011;22448;51.298;6.430;2022-11-03T19:23:46;12.02;;;6.00;;
35969;SDS011;22448;51.298;6.430;2022-11-03T19:28:53;11.00;;;5.85;;
35969;SDS011;22448;51.298;6.430;2022-11-03T19:31:30;10.20;;;6.10;;
35969;SDS011;22448;51.298;6.430;2022-11-03T19:34:00;9.57;;;5.55;;
35969;SDS011;22448;51.298;6.430;2022-11-03T19:36:28;16.02;;;5.93;;
35969;SDS011;22448;51.298;6.430;2022-11-03T19:38:58;11.25;;;5.53;;
35969;SDS011;22448;51.298;6.430;2022-11-03T19:41:26;12.18;;;5.55;;
35969;SDS011;22448;51.298;6.430;2022-11-03T19:44:12;14.32;;;6.30;;
35969;SDS011;22448;51.298;6.430;2022-11-03T19:46:39;9.45;;;5.57;;
35969;SDS011;22448;51.298;6.430;2022-11-03T19:49:10;12.65;;;6.07;;
35969;SDS011;22448;51.298;6.430;2022-11-03T19:51:39;15.43;;;6.18;;
35969;SDS011;22448;51.298;6.430;2022-11-03T19:54:14;10.40;;;6.68;;
35969;SDS011;22448;51.298;6.430;2022-11-03T19:56:43;12.88;;;6.63;;
35969;SDS011;22448;51.298;6.430;2022-11-03T19:59:13;12.23;;;6.25;;
35969;SDS011;22448;51.298;6.430;2022-11-03T20:01:41;14.45;;;6.85;;
35969;SDS011;22448;51.298;6.430;2022-11-03T20:04:08;15.38;;;7.38;;
35969;SDS011;22448;51.298;6.430;2022-11-03T20:06:36;16.48;;;8.05;;
35969;SDS011;22448;51.298;6.430;2022-11-03T20:09:04;17.58;;;8.60;;
35969;SDS011;22448;51.298;6.430;2022-11-03T20:11:33;14.75;;;7.28;;
35969;SDS011;22448;51.298;6.430;2022-11-03T20:14:02;14.10;;;7.60;;
35969;SDS011;22448;51.298;6.430;2022-11-03T20:16:29;11.00;;;6.60;;
35969;SDS011;22448;51.298;6.430;2022-11-03T20:18:57;11.23;;;6.35;;
35969;SDS011;22448;51.298;6.430;2022-11-03T20:21:23;9.32;;;5.95;;
35969;SDS011;22448;51.298;6.430;2022-11-03T20:23:59;10.60;;;4.97;;
35969;SDS011;22448;51.298;6.430;2022-11-03T20:26:25;10.65;;;4.68;;
35969;SDS011;22448;51.298;6.430;2022-11-03T20:28:53;7.45;;;3.90;;
35969;SDS011;22448;51.298;6.430;2022-11-03T20:31:21;6.05;;;3.65;;
35969;SDS011;22448;51.298;6.430;2022-11-03T20:33:47;7.93;;;4.05;;
35969;SDS011;22448;51.298;6.430;2022-11-03T20:36:16;6.47;;;4.22;;
35969;SDS011;22448;51.298;6.430;2022-11-03T20:38:49;6.82;;;4.30;;
35969;SDS011;22448;51.298;6.430;2022-11-03T20:41:18;8.43;;;3.80;;
35969;SDS011;22448;51.298;6.430;2022-11-03T20:43:45;14.10;;;3.75;;
35969;SDS011;22448;51.298;6.430;2022-11-03T20:46:47;7.18;;;3.50;;
35969;SDS011;22448;51.298;6.430;2022-11-03T20:51:41;6.53;;;3.85;;
35969;SDS011;22448;51.298;6.430;2022-11-03T20:54:15;6.43;;;3.55;;
35969;SDS011;22448;51.298;6.430;2022-11-03T20:56:44;5.93;;;3.22;;
35969;SDS011;22448;51.298;6.430;2022-11-03T20:59:12;6.03;;;3.03;;
35969;SDS011;22448;51.298;6.430;2022-11-03T21:01:41;5.40;;;3.65;;
35969;SDS011;22448;51.298;6.430;2022-11-03T21:04:12;6.82;;;3.90;;
35969;SDS011;22448;51.298;6.430;2022-11-03T21:06:41;5.32;;;3.35;;
35969;SDS011;22448;51.298;6.430;2022-11-03T21:09:12;5.07;;;3.50;;
35969;SDS011;22448;51.298;6.430;2022-11-03T21:11:40;7.70;;;3.50;;
35969;SDS011;22448;51.298;6.430;2022-11-03T21:14:13;8.82;;;3.70;;
35969;SDS011;22448;51.298;6.430;2022-11-03T21:16:54;5.57;;;3.60;;
35969;SDS011;22448;51.298;6.430;2022-11-03T21:19:40;7.07;;;3.55;;
35969;SDS011;22448;51.298;6.430;2022-11-03T21:22:33;4.65;;;3.05;;
35969;SDS011;22448;51.298;6.430;2022-11-03T21:25:19;5.05;;;3.35;;
35969;SDS011;22448;51.298;6.430;2022-11-03T21:27:48;8.32;;;3.05;;
35969;SDS011;22448;51.298;6.430;2022-11-03T21:30:15;6.88;;;3.00;;
35969;SDS011;22448;51.298;6.430;2022-11-03T21:32:42;6.53;;;3.45;;
35969;SDS011;22448;51.298;6.430;2022-11-03T21:35:13;6.95;;;3.55;;
35969;SDS011;22448;51.298;6.430;2022-11-03T21:40:09;4.15;;;3.17;;
35969;SDS011;22448;51.298;6.430;2022-11-03T21:42:37;7.68;;;3.33;;
35969;SDS011;22448;51.298;6.430;2022-11-03T21:45:22;9.82;;;4.03;;
35969;SDS011;22448;51.298;6.430;2022-11-03T21:47:50;5.65;;;3.65;;
35969;SDS011;22448;51.298;6.430;2022-11-03T21:50:40;4.45;;;3.28;;
35969;SDS011;22448;51.298;6.430;2022-11-03T21:53:07;6.72;;;3.80;;
35969;SDS011;22448;51.298;6.430;2022-11-03T21:55:36;7.85;;;3.58;;
35969;SDS011;22448;51.298;6.430;2022-11-03T21:58:03;5.55;;;3.80;;
35969;SDS011;22448;51.298;6.430;2022-11-03T22:00:30;8.43;;;3.85;;
35969;SDS011;22448;51.298;6.430;2022-11-03T22:02:58;9.85;;;3.75;;
35969;SDS011;22448;51.298;6.430;2022-11-03T22:05:25;5.68;;;3.58;;
35969;SDS011;22448;51.298;6.430;2022-11-03T22:07:52;6.55;;;3.90;;
35969;SDS011;22448;51.298;6.430;2022-11-03T22:10:19;7.10;;;3.90;;
35969;SDS011;22448;51.298;6.430;2022-11-03T22:12:46;9.23;;;4.22;;
35969;SDS011;22448;51.298;6.430;2022-11-03T22:15:13;8.23;;;4.32;;
35969;SDS011;22448;51.298;6.430;2022-11-03T22:18:02;9.07;;;4.05;;
35969;SDS011;22448;51.298;6.430;2022-11-03T22:20:31;5.70;;;4.00;;
35969;SDS011;22448;51.298;6.430;2022-11-03T22:23:17;6.38;;;3.67;;
35969;SDS011;22448;51.298;6.430;2022-11-03T22:26:03;5.13;;;3.38;;
35969;SDS011;22448;51.298;6.430;2022-11-03T22:28:48;6.32;;;3.13;;
35969;SDS011;22448;51.298;6.430;2022-11-03T22:31:35;5.30;;;2.60;;
35969;SDS011;22448;51.298;6.430;2022-11-03T22:34:08;3.70;;;1.75;;
35969;SDS011;22448;51.298;6.430;2022-11-03T22:36:54;4.22;;;2.00;;
35969;SDS011;22448;51.298;6.430;2022-11-03T22:39:21;7.00;;;2.22;;
35969;SDS011;22448;51.298;6.430;2022-11-03T22:42:09;3.83;;;2.05;;
35969;SDS011;22448;51.298;6.430;2022-11-03T22:45:07;4.85;;;2.17;;
35969;SDS011;22448;51.298;6.430;2022-11-03T22:47:54;2.85;;;2.35;;
35969;SDS011;22448;51.298;6.430;2022-11-03T22:50:22;4.38;;;2.47;;
35969;SDS011;22448;51.298;6.430;2022-11-03T22:52:49;4.13;;;2.30;;
35969;SDS011;22448;51.298;6.430;2022-11-03T22:55:16;6.97;;;2.70;;
35969;SDS011;22448;51.298;6.430;2022-11-03T22:57:43;2.80;;;2.50;;
35969;SDS011;22448;51.298;6.430;2022-11-03T23:00:10;4.88;;;2.78;;
35969;SDS011;22448;51.298;6.430;2022-11-03T23:02:39;3.13;;;2.50;;
35969;SDS011;22448;51.298;6.430;2022-11-03T23:05:06;8.05;;;2.60;;
35969;SDS011;22448;51.298;6.430;2022-11-03T23:07:33;4.00;;;2.40;;
35969;SDS011;22448;51.298;6.430;2022-11-03T23:10:06;6.78;;;2.47;;
35969;SDS011;22448;51.298;6.430;2022-11-03T23:12:34;3.47;;;2.25;;
35969;SDS011;22448;51.298;6.430;2022-11-03T23:15:01;4.70;;;1.95;;
35969;SDS011;22448;51.298;6.430;2022-11-03T23:17:47;4.13;;;2.10;;
35969;SDS011;22448;51.298;6.430;2022-11-03T23:20:36;2.10;;;1.60;;
35969;SDS011;22448;51.298;6.430;2022-11-03T23:23:22;3.05;;;1.80;;
35969;SDS011;22448;51.298;6.430;2022-11-03T23:26:07;2.45;;;2.00;;
35969;SDS011;22448;51.298;6.430;2022-11-03T23:28:34;3.50;;;1.63;;
35969;SDS011;22448;51.298;6.430;2022-11-03T23:31:01;4.07;;;1.70;;
35969;SDS011;22448;51.298;6.430;2022-11-03T23:33:29;2.33;;;1.77;;
35969;SDS011;22448;51.298;6.430;2022-11-03T23:36:00;2.63;;;1.83;;
35969;SDS011;22448;51.298;6.430;2022-11-03T23:38:32;2.50;;;2.00;;
35969;SDS011;22448;51.298;6.430;2022-11-03T23:41:07;4.22;;;1.80;;
35969;SDS011;22448;51.298;6.430;2022-11-03T23:43:42;3.00;;;2.08;;
35969;SDS011;22448;51.298;6.430;2022-11-03T23:46:10;3.78;;;1.92;;
35969;SDS011;22448;51.298;6.430;2022-11-03T23:48:57;2.33;;;1.80;;
35969;SDS011;22448;51.298;6.430;2022-11-03T23:51:26;3.05;;;1.90;;
35969;SDS011;22448;51.298;6.430;2022-11-03T23:53:55;3.65;;;1.55;;